Terminal Aerodrome Forecast
Issued by NWS Riverton, WY

Home | Current Version | Previous Version | Text Only | Print | Product List | Glossary On
Versions: 1 2 3 4 5 6 7 8 9 10 11 12 13 14 15
660
FTUS45 KRIW 251135
TAFRIW
TAF
KRIW 251135Z 2512/2612 03008KT P6SM SCT090 BKN150
     FM251700 31010KT P6SM SCT150
     FM252200 01012G18KT P6SM SCT060 BKN080
     FM260200 03008KT P6SM BKN070
     FM260700 VRB06KT P6SM SCT080=

USA.gov is the U.S. government's official web portal to all federal, state and local government web resources and services.